sensor_id;sensor_type;location;lat;lon;timestamp;pressure;altitude;pressure_sealevel;temperature;humidity
25855;BME280;13680;49.936;11.344;2023-04-02T00:00:29;95777.41;;;10.01;87.29
25855;BME280;13680;49.936;11.344;2023-04-02T00:03:02;95783.72;;;10.05;87.18
25855;BME280;13680;49.936;11.344;2023-04-02T00:05:40;95781.03;;;10.05;87.39
25855;BME280;13680;49.936;11.344;2023-04-02T00:08:20;95784.19;;;10.07;87.32
25855;BME280;13680;49.936;11.344;2023-04-02T00:10:54;95786.56;;;10.08;87.43
25855;BME280;13680;49.936;11.344;2023-04-02T00:13:25;95781.78;;;10.14;87.34
25855;BME280;13680;49.936;11.344;2023-04-02T00:15:55;95789.41;;;10.12;87.30
25855;BME280;13680;49.936;11.344;2023-04-02T00:18:22;95787.81;;;10.11;87.09
25855;BME280;13680;49.936;11.344;2023-04-02T00:23:36;95791.28;;;10.11;87.09
25855;BME280;13680;49.936;11.344;2023-04-02T00:26:05;95797.28;;;10.17;87.04
25855;BME280;13680;49.936;11.344;2023-04-02T00:28:31;95799.31;;;10.20;86.76
25855;BME280;13680;49.936;11.344;2023-04-02T00:30:59;95797.44;;;10.21;86.67
25855;BME280;13680;49.936;11.344;2023-04-02T00:33:27;95805.34;;;10.17;86.95
25855;BME280;13680;49.936;11.344;2023-04-02T00:35:54;95804.53;;;10.16;86.94
25855;BME280;13680;49.936;11.344;2023-04-02T00:40:50;95809.47;;;10.14;86.79
25855;BME280;13680;49.936;11.344;2023-04-02T00:43:17;95811.16;;;10.19;87.01
25855;BME280;13680;49.936;11.344;2023-04-02T00:45:45;95810.38;;;10.19;86.71
25855;BME280;13680;49.936;11.344;2023-04-02T00:50:56;95805.97;;;10.14;86.77
25855;BME280;13680;49.936;11.344;2023-04-02T00:53:26;95810.72;;;10.17;86.45
25855;BME280;13680;49.936;11.344;2023-04-02T00:55:53;95815.44;;;10.20;86.46
25855;BME280;13680;49.936;11.344;2023-04-02T00:58:25;95813.25;;;10.05;87.23
25855;BME280;13680;49.936;11.344;2023-04-02T01:00:51;95820.22;;;10.06;87.25
25855;BME280;13680;49.936;11.344;2023-04-02T01:05:47;95812.31;;;10.01;87.41
25855;BME280;13680;49.936;11.344;2023-04-02T01:08:25;95820.53;;;10.04;87.28
25855;BME280;13680;49.936;11.344;2023-04-02T01:11:09;95820.22;;;10.06;87.58
25855;BME280;13680;49.936;11.344;2023-04-02T01:13:52;95826.53;;;10.10;87.33
25855;BME280;13680;49.936;11.344;2023-04-02T01:19:01;95827.16;;;10.07;87.84
25855;BME280;13680;49.936;11.344;2023-04-02T01:21:36;95826.69;;;9.87;87.82
25855;BME280;13680;49.936;11.344;2023-04-02T01:24:08;95823.56;;;9.94;88.35
25855;BME280;13680;49.936;11.344;2023-04-02T01:29:15;95831.41;;;10.08;88.10
25855;BME280;13680;49.936;11.344;2023-04-02T01:31:44;95828.72;;;10.08;87.95
25855;BME280;13680;49.936;11.344;2023-04-02T01:34:13;95844.72;;;9.95;89.01
25855;BME280;13680;49.936;11.344;2023-04-02T01:42:05;95841.09;;;9.91;89.36
25855;BME280;13680;49.936;11.344;2023-04-02T01:44:41;95850.88;;;9.87;88.89
25855;BME280;13680;49.936;11.344;2023-04-02T01:47:13;95853.72;;;9.99;88.17
25855;BME280;13680;49.936;11.344;2023-04-02T01:49:41;95849.28;;;9.95;88.94
25855;BME280;13680;49.936;11.344;2023-04-02T01:52:08;95848.66;;;9.98;89.05
25855;BME280;13680;49.936;11.344;2023-04-02T01:54:38;95855.13;;;9.97;88.71
25855;BME280;13680;49.936;11.344;2023-04-02T01:57:06;95857.97;;;10.01;88.62
25855;BME280;13680;49.936;11.344;2023-04-02T01:59:32;95856.06;;;10.01;88.15
25855;BME280;13680;49.936;11.344;2023-04-02T02:02:03;95854.53;;;9.91;88.88
25855;BME280;13680;49.936;11.344;2023-04-02T02:04:30;95847.88;;;9.89;88.62
25855;BME280;13680;49.936;11.344;2023-04-02T02:06:57;95859.72;;;9.96;88.22
25855;BME280;13680;49.936;11.344;2023-04-02T02:09:27;95856.41;;;9.99;88.66
25855;BME280;13680;49.936;11.344;2023-04-02T02:11:53;95867.94;;;9.74;89.28
25855;BME280;13680;49.936;11.344;2023-04-02T02:14:22;95865.44;;;9.86;89.85
25855;BME280;13680;49.936;11.344;2023-04-02T02:16:48;95859.25;;;9.86;89.27
25855;BME280;13680;49.936;11.344;2023-04-02T02:19:31;95877.25;;;9.85;89.69
25855;BME280;13680;49.936;11.344;2023-04-02T02:24:34;95878.97;;;9.98;88.65
25855;BME280;13680;49.936;11.344;2023-04-02T02:32:19;95894.16;;;9.94;88.87
25855;BME280;13680;49.936;11.344;2023-04-02T02:34:48;95891.00;;;10.01;88.35
25855;BME280;13680;49.936;11.344;2023-04-02T02:37:23;95894.16;;;10.03;88.31
25855;BME280;13680;49.936;11.344;2023-04-02T02:39:55;95894.16;;;10.03;88.38
25855;BME280;13680;49.936;11.344;2023-04-02T02:42:35;95897.63;;;10.04;88.32
25855;BME280;13680;49.936;11.344;2023-04-02T02:45:05;95903.31;;;10.11;87.74
25855;BME280;13680;49.936;11.344;2023-04-02T02:47:37;95895.56;;;9.92;88.63
25855;BME280;13680;49.936;11.344;2023-04-02T02:50:13;95909.78;;;10.01;88.27
25855;BME280;13680;49.936;11.344;2023-04-02T02:52:45;95916.28;;;9.91;89.25
25855;BME280;13680;49.936;11.344;2023-04-02T02:55:17;95908.84;;;9.88;88.89
25855;BME280;13680;49.936;11.344;2023-04-02T02:57:51;95911.22;;;9.98;88.27
25855;BME280;13680;49.936;11.344;2023-04-02T03:00:18;95914.38;;;10.01;88.82
25855;BME280;13680;49.936;11.344;2023-04-02T03:02:45;95918.16;;;9.99;88.79
25855;BME280;13680;49.936;11.344;2023-04-02T03:05:20;95924.19;;;9.88;88.94
25855;BME280;13680;49.936;11.344;2023-04-02T03:07:49;95920.38;;;9.97;88.41
25855;BME280;13680;49.936;11.344;2023-04-02T03:10:38;95926.72;;;10.02;88.35
25855;BME280;13680;49.936;11.344;2023-04-02T03:13:22;95927.97;;;9.95;88.92
25855;BME280;13680;49.936;11.344;2023-04-02T03:18:50;95935.06;;;10.00;88.63
25855;BME280;13680;49.936;11.344;2023-04-02T03:21:23;95937.75;;;10.09;88.55
25855;BME280;13680;49.936;11.344;2023-04-02T03:23:58;95939.97;;;10.07;88.52
25855;BME280;13680;49.936;11.344;2023-04-02T03:26:30;95949.13;;;9.88;89.00
25855;BME280;13680;49.936;11.344;2023-04-02T03:29:18;95944.53;;;9.97;88.88
25855;BME280;13680;49.936;11.344;2023-04-02T03:31:52;95944.09;;;9.95;88.37
25855;BME280;13680;49.936;11.344;2023-04-02T03:34:38;95959.38;;;9.95;89.02
25855;BME280;13680;49.936;11.344;2023-04-02T03:37:21;95956.69;;;9.95;88.99
25855;BME280;13680;49.936;11.344;2023-04-02T03:40:14;95957.19;;;9.88;89.27
25855;BME280;13680;49.936;11.344;2023-04-02T03:42:48;95956.41;;;9.96;88.53
25855;BME280;13680;49.936;11.344;2023-04-02T03:45:22;95958.75;;;9.89;89.26
25855;BME280;13680;49.936;11.344;2023-04-02T03:48:02;95962.72;;;10.01;89.24
25855;BME280;13680;49.936;11.344;2023-04-02T03:50:47;95971.09;;;9.99;88.94
25855;BME280;13680;49.936;11.344;2023-04-02T03:53:15;95971.56;;;9.92;88.97
25855;BME280;13680;49.936;11.344;2023-04-02T03:55:41;95966.50;;;9.99;89.08
25855;BME280;13680;49.936;11.344;2023-04-02T03:58:40;95971.25;;;10.03;89.05
25855;BME280;13680;49.936;11.344;2023-04-02T04:01:23;95977.09;;;9.96;89.06
25855;BME280;13680;49.936;11.344;2023-04-02T04:03:55;95977.25;;;10.08;88.37
25855;BME280;13680;49.936;11.344;2023-04-02T04:06:28;95976.34;;;10.13;88.52
25855;BME280;13680;49.936;11.344;2023-04-02T04:09:05;95976.16;;;10.01;88.54
25855;BME280;13680;49.936;11.344;2023-04-02T04:11:34;95993.34;;;9.82;90.25
25855;BME280;13680;49.936;11.344;2023-04-02T04:14:05;95995.72;;;9.92;89.80
25855;BME280;13680;49.936;11.344;2023-04-02T04:22:25;96002.69;;;9.93;88.82
25855;BME280;13680;49.936;11.344;2023-04-02T04:24:59;96003.00;;;10.01;88.89
25855;BME280;13680;49.936;11.344;2023-04-02T04:27:42;96012.91;;;9.74;90.12
25855;BME280;13680;49.936;11.344;2023-04-02T04:30:28;96014.53;;;9.92;89.26
25855;BME280;13680;49.936;11.344;2023-04-02T04:33:00;96020.41;;;10.03;88.84
25855;BME280;13680;49.936;11.344;2023-04-02T04:35:28;96022.75;;;10.05;89.01
25855;BME280;13680;49.936;11.344;2023-04-02T04:38:10;96028.78;;;10.10;88.04
25855;BME280;13680;49.936;11.344;2023-04-02T04:40:44;96034.59;;;9.86;88.93
25855;BME280;13680;49.936;11.344;2023-04-02T04:43:26;96037.91;;;9.92;89.31
25855;BME280;13680;49.936;11.344;2023-04-02T04:46:02;96040.75;;;9.95;88.67
25855;BME280;13680;49.936;11.344;2023-04-02T04:48:36;96041.50;;;9.78;89.81
25855;BME280;13680;49.936;11.344;2023-04-02T04:51:07;96049.13;;;9.85;89.25
25855;BME280;13680;49.936;11.344;2023-04-02T04:53:44;96051.34;;;9.92;89.20
25855;BME280;13680;49.936;11.344;2023-04-02T04:56:11;96057.97;;;9.94;88.87
25855;BME280;13680;49.936;11.344;2023-04-02T04:58:46;96054.50;;;9.94;89.16
25855;BME280;13680;49.936;11.344;2023-04-02T05:01:17;96071.44;;;10.03;89.04
25855;BME280;13680;49.936;11.344;2023-04-02T05:03:50;96078.00;;;9.39;89.90
25855;BME280;13680;49.936;11.344;2023-04-02T05:06:36;96086.84;;;9.17;91.93
25855;BME280;13680;49.936;11.344;2023-04-02T05:09:19;96094.69;;;9.05;91.60
25855;BME280;13680;49.936;11.344;2023-04-02T05:14:39;96098.06;;;8.74;92.02
25855;BME280;13680;49.936;11.344;2023-04-02T05:17:21;96107.84;;;8.92;90.90
25855;BME280;13680;49.936;11.344;2023-04-02T05:20:11;96112.94;;;9.03;90.45
25855;BME280;13680;49.936;11.344;2023-04-02T05:23:01;96114.41;;;9.09;89.56
25855;BME280;13680;49.936;11.344;2023-04-02T05:25:30;96121.50;;;9.05;88.57
25855;BME280;13680;49.936;11.344;2023-04-02T05:28:16;96126.38;;;8.66;88.72
25855;BME280;13680;49.936;11.344;2023-04-02T05:30:49;96128.34;;;8.74;88.77
25855;BME280;13680;49.936;11.344;2023-04-02T05:33:29;96131.94;;;8.70;87.51
25855;BME280;13680;49.936;11.344;2023-04-02T05:36:03;96144.59;;;8.55;87.24
25855;BME280;13680;49.936;11.344;2023-04-02T05:38:35;96144.91;;;8.26;89.15
25855;BME280;13680;49.936;11.344;2023-04-02T05:41:06;96154.34;;;8.74;86.77
25855;BME280;13680;49.936;11.344;2023-04-02T05:43:33;96160.16;;;8.25;88.05
25855;BME280;13680;49.936;11.344;2023-04-02T05:46:13;96160.75;;;8.08;89.57
25855;BME280;13680;49.936;11.344;2023-04-02T05:48:40;96162.16;;;8.33;87.76
25855;BME280;13680;49.936;11.344;2023-04-02T05:51:14;96166.88;;;8.64;86.12
25855;BME280;13680;49.936;11.344;2023-04-02T05:53:48;96174.44;;;8.62;85.98
25855;BME280;13680;49.936;11.344;2023-04-02T06:03:58;96193.66;;;7.67;86.66
25855;BME280;13680;49.936;11.344;2023-04-02T06:09:12;96206.16;;;7.52;87.21
25855;BME280;13680;49.936;11.344;2023-04-02T06:11:43;96208.84;;;7.99;85.38
25855;BME280;13680;49.936;11.344;2023-04-02T06:14:14;96214.72;;;8.01;85.46
25855;BME280;13680;49.936;11.344;2023-04-02T06:16:43;96218.91;;;8.08;85.17
25855;BME280;13680;49.936;11.344;2023-04-02T06:19:17;96219.19;;;8.20;83.82
25855;BME280;13680;49.936;11.344;2023-04-02T06:21:45;96224.97;;;7.80;86.30
25855;BME280;13680;49.936;11.344;2023-04-02T06:24:17;96225.00;;;7.94;86.34
25855;BME280;13680;49.936;11.344;2023-04-02T06:26:50;96230.00;;;7.35;89.16
25855;BME280;13680;49.936;11.344;2023-04-02T06:29:34;96241.94;;;7.43;88.43
25855;BME280;13680;49.936;11.344;2023-04-02T06:32:06;96248.06;;;7.24;88.65
25855;BME280;13680;49.936;11.344;2023-04-02T06:34:35;96251.97;;;7.84;86.61
25855;BME280;13680;49.936;11.344;2023-04-02T06:39:36;96254.69;;;8.12;84.45
25855;BME280;13680;49.936;11.344;2023-04-02T06:42:20;96258.59;;;7.86;85.27
25855;BME280;13680;49.936;11.344;2023-04-02T06:44:46;96266.81;;;7.76;85.32
25855;BME280;13680;49.936;11.344;2023-04-02T06:47:21;96269.06;;;7.69;85.85
25855;BME280;13680;49.936;11.344;2023-04-02T06:49:55;96280.97;;;7.77;85.29
25855;BME280;13680;49.936;11.344;2023-04-02T06:52:25;96277.03;;;7.88;83.72
25855;BME280;13680;49.936;11.344;2023-04-02T06:54:52;96290.31;;;7.60;84.08
25855;BME280;13680;49.936;11.344;2023-04-02T06:57:18;96297.34;;;7.75;84.13
25855;BME280;13680;49.936;11.344;2023-04-02T06:59:43;96301.06;;;7.03;85.91
25855;BME280;13680;49.936;11.344;2023-04-02T07:05:00;96313.03;;;7.44;84.35
25855;BME280;13680;49.936;11.344;2023-04-02T07:07:26;96324.53;;;7.06;85.40
25855;BME280;13680;49.936;11.344;2023-04-02T07:09:51;96332.03;;;7.04;86.02
25855;BME280;13680;49.936;11.344;2023-04-02T07:12:21;96333.75;;;6.95;86.62
25855;BME280;13680;49.936;11.344;2023-04-02T07:14:47;96346.50;;;7.03;84.79
25855;BME280;13680;49.936;11.344;2023-04-02T07:17:16;96337.75;;;6.73;86.71
25855;BME280;13680;49.936;11.344;2023-04-02T07:19:42;96340.66;;;7.20;83.75
25855;BME280;13680;49.936;11.344;2023-04-02T07:22:10;96349.13;;;7.08;84.21
25855;BME280;13680;49.936;11.344;2023-04-02T07:24:35;96350.03;;;6.98;84.58
25855;BME280;13680;49.936;11.344;2023-04-02T07:27:01;96363.56;;;6.29;87.36
25855;BME280;13680;49.936;11.344;2023-04-02T07:29:26;96366.47;;;6.62;86.17
25855;BME280;13680;49.936;11.344;2023-04-02T07:31:52;96369.63;;;6.64;86.18
25855;BME280;13680;49.936;11.344;2023-04-02T07:34:18;96374.88;;;6.75;85.58
25855;BME280;13680;49.936;11.344;2023-04-02T07:36:43;96383.00;;;6.64;85.35
25855;BME280;13680;49.936;11.344;2023-04-02T07:39:08;96386.53;;;6.84;83.69
25855;BME280;13680;49.936;11.344;2023-04-02T07:41:49;96394.34;;;6.80;83.55
25855;BME280;13680;49.936;11.344;2023-04-02T07:44:15;96401.28;;;6.52;85.33
25855;BME280;13680;49.936;11.344;2023-04-02T07:46:40;96403.84;;;6.03;87.55
25855;BME280;13680;49.936;11.344;2023-04-02T07:49:05;96406.25;;;6.34;85.35
25855;BME280;13680;49.936;11.344;2023-04-02T07:51:31;96419.06;;;6.32;85.70
25855;BME280;13680;49.936;11.344;2023-04-02T07:53:57;96420.44;;;6.30;84.19
25855;BME280;13680;49.936;11.344;2023-04-02T07:56:23;96421.69;;;6.37;85.03
25855;BME280;13680;49.936;11.344;2023-04-02T07:58:49;96432.47;;;6.27;85.84
25855;BME280;13680;49.936;11.344;2023-04-02T08:01:21;96430.81;;;6.31;85.55
25855;BME280;13680;49.936;11.344;2023-04-02T08:03:49;96443.06;;;6.37;84.95
25855;BME280;13680;49.936;11.344;2023-04-02T08:06:14;96439.38;;;6.63;83.31
25855;BME280;13680;49.936;11.344;2023-04-02T08:08:40;96453.09;;;5.77;86.61
25855;BME280;13680;49.936;11.344;2023-04-02T08:11:06;96465.03;;;6.29;83.54
25855;BME280;13680;49.936;11.344;2023-04-02T08:13:31;96462.13;;;6.60;83.07
25855;BME280;13680;49.936;11.344;2023-04-02T08:15:58;96468.38;;;6.45;82.27
25855;BME280;13680;49.936;11.344;2023-04-02T08:18:24;96482.84;;;5.99;84.55
25855;BME280;13680;49.936;11.344;2023-04-02T08:20:49;96478.06;;;6.36;83.26
25855;BME280;13680;49.936;11.344;2023-04-02T08:23:15;96483.56;;;6.15;83.62
25855;BME280;13680;49.936;11.344;2023-04-02T08:25:43;96485.09;;;5.71;84.87
25855;BME280;13680;49.936;11.344;2023-04-02T08:28:08;96494.06;;;6.01;83.75
25855;BME280;13680;49.936;11.344;2023-04-02T08:30:34;96492.41;;;6.05;84.15
25855;BME280;13680;49.936;11.344;2023-04-02T08:32:59;96494.22;;;6.20;83.69
25855;BME280;13680;49.936;11.344;2023-04-02T08:35:25;96505.56;;;6.36;82.54
25855;BME280;13680;49.936;11.344;2023-04-02T08:37:50;96508.38;;;6.16;83.29
25855;BME280;13680;49.936;11.344;2023-04-02T08:40:33;96507.84;;;6.53;81.95
25855;BME280;13680;49.936;11.344;2023-04-02T08:43:22;96523.44;;;6.41;81.83
25855;BME280;13680;49.936;11.344;2023-04-02T08:48:37;96524.16;;;6.52;81.56
25855;BME280;13680;49.936;11.344;2023-04-02T08:51:06;96524.84;;;6.28;83.20
25855;BME280;13680;49.936;11.344;2023-04-02T08:53:34;96523.84;;;6.59;82.47
25855;BME280;13680;49.936;11.344;2023-04-02T08:56:32;96539.09;;;6.53;83.03
25855;BME280;13680;49.936;11.344;2023-04-02T08:59:05;96535.53;;;6.28;84.66
25855;BME280;13680;49.936;11.344;2023-04-02T09:01:56;96538.09;;;6.44;85.26
25855;BME280;13680;49.936;11.344;2023-04-02T09:04:25;96551.13;;;6.11;85.43
25855;BME280;13680;49.936;11.344;2023-04-02T09:06:54;96551.25;;;6.35;85.31
25855;BME280;13680;49.936;11.344;2023-04-02T09:09:20;96551.84;;;6.66;83.57
25855;BME280;13680;49.936;11.344;2023-04-02T09:11:54;96549.28;;;6.51;84.55
25855;BME280;13680;49.936;11.344;2023-04-02T09:14:29;96550.56;;;6.93;83.44
25855;BME280;13680;49.936;11.344;2023-04-02T09:17:13;96563.22;;;7.12;82.47
25855;BME280;13680;49.936;11.344;2023-04-02T09:19:42;96564.47;;;6.90;83.42
25855;BME280;13680;49.936;11.344;2023-04-02T09:22:25;96574.09;;;6.91;84.30
25855;BME280;13680;49.936;11.344;2023-04-02T09:24:53;96576.97;;;6.65;81.92
25855;BME280;13680;49.936;11.344;2023-04-02T09:27:21;96583.34;;;6.69;83.63
25855;BME280;13680;49.936;11.344;2023-04-02T09:29:50;96576.47;;;6.93;83.86
25855;BME280;13680;49.936;11.344;2023-04-02T09:32:39;96595.50;;;6.86;83.06
25855;BME280;13680;49.936;11.344;2023-04-02T09:35:15;96594.28;;;6.28;85.97
25855;BME280;13680;49.936;11.344;2023-04-02T09:37:42;96604.03;;;6.93;84.63
25855;BME280;13680;49.936;11.344;2023-04-02T09:40:21;96610.63;;;7.01;83.14
25855;BME280;13680;49.936;11.344;2023-04-02T09:42:47;96614.59;;;7.09;80.90
25855;BME280;13680;49.936;11.344;2023-04-02T09:45:19;96614.38;;;6.65;82.71
25855;BME280;13680;49.936;11.344;2023-04-02T09:47:45;96614.00;;;6.77;83.90
25855;BME280;13680;49.936;11.344;2023-04-02T09:52:46;96627.50;;;6.96;81.41
25855;BME280;13680;49.936;11.344;2023-04-02T09:55:28;96632.94;;;6.86;81.32
25855;BME280;13680;49.936;11.344;2023-04-02T09:58:13;96635.56;;;6.91;82.51
25855;BME280;13680;49.936;11.344;2023-04-02T10:00:39;96636.75;;;6.75;82.02
25855;BME280;13680;49.936;11.344;2023-04-02T10:03:27;96642.28;;;6.44;85.15
25855;BME280;13680;49.936;11.344;2023-04-02T10:06:08;96648.94;;;6.46;82.54
25855;BME280;13680;49.936;11.344;2023-04-02T10:08:35;96656.16;;;6.46;83.82
25855;BME280;13680;49.936;11.344;2023-04-02T10:11:03;96653.91;;;6.63;85.42
25855;BME280;13680;49.936;11.344;2023-04-02T10:13:54;96660.69;;;6.90;82.22
25855;BME280;13680;49.936;11.344;2023-04-02T10:16:30;96662.47;;;7.40;80.63
25855;BME280;13680;49.936;11.344;2023-04-02T10:21:46;96675.94;;;6.90;83.58
25855;BME280;13680;49.936;11.344;2023-04-02T10:24:14;96673.13;;;7.45;81.45
25855;BME280;13680;49.936;11.344;2023-04-02T10:29:40;96683.38;;;7.67;81.37
25855;BME280;13680;49.936;11.344;2023-04-02T10:32:21;96683.91;;;7.34;81.05
25855;BME280;13680;49.936;11.344;2023-04-02T10:34:55;96690.63;;;7.32;79.79
25855;BME280;13680;49.936;11.344;2023-04-02T10:51:24;96710.84;;;7.09;81.61
25855;BME280;13680;49.936;11.344;2023-04-02T10:56:37;96735.75;;;6.44;82.38
25855;BME280;13680;49.936;11.344;2023-04-02T10:59:17;96730.50;;;6.23;82.34
25855;BME280;13680;49.936;11.344;2023-04-02T11:01:45;96728.19;;;6.66;81.60
25855;BME280;13680;49.936;11.344;2023-04-02T11:04:21;96743.81;;;6.94;79.74
25855;BME280;13680;49.936;11.344;2023-04-02T11:06:52;96741.75;;;7.25;77.79
25855;BME280;13680;49.936;11.344;2023-04-02T11:09:22;96756.81;;;7.16;77.56
25855;BME280;13680;49.936;11.344;2023-04-02T11:11:55;96757.94;;;7.44;77.53
25855;BME280;13680;49.936;11.344;2023-04-02T11:14:24;96759.09;;;7.67;76.37
25855;BME280;13680;49.936;11.344;2023-04-02T11:16:51;96761.59;;;7.19;76.89
25855;BME280;13680;49.936;11.344;2023-04-02T11:19:20;96765.78;;;7.30;76.05
25855;BME280;13680;49.936;11.344;2023-04-02T11:21:54;96766.72;;;7.50;76.04
25855;BME280;13680;49.936;11.344;2023-04-02T11:29:39;96784.84;;;6.58;77.68
25855;BME280;13680;49.936;11.344;2023-04-02T11:32:14;96786.59;;;6.88;76.63
25855;BME280;13680;49.936;11.344;2023-04-02T11:37:37;96796.50;;;6.88;77.49
25855;BME280;13680;49.936;11.344;2023-04-02T11:42:45;96805.69;;;6.61;77.92
25855;BME280;13680;49.936;11.344;2023-04-02T11:50:45;96818.38;;;7.06;76.36
25855;BME280;13680;49.936;11.344;2023-04-02T12:01:58;96832.69;;;6.60;76.58
25855;BME280;13680;49.936;11.344;2023-04-02T12:07:24;96842.63;;;7.14;74.81
25855;BME280;13680;49.936;11.344;2023-04-02T12:09:55;96852.25;;;6.29;75.52
25855;BME280;13680;49.936;11.344;2023-04-02T12:12:31;96854.13;;;6.18;78.05
25855;BME280;13680;49.936;11.344;2023-04-02T12:14:59;96848.44;;;6.66;75.69
25855;BME280;13680;49.936;11.344;2023-04-02T12:22:35;96873.31;;;5.95;78.13
25855;BME280;13680;49.936;11.344;2023-04-02T12:27:47;96878.69;;;6.31;76.07
25855;BME280;13680;49.936;11.344;2023-04-02T12:30:21;96883.75;;;6.27;76.07
25855;BME280;13680;49.936;11.344;2023-04-02T12:32:47;96886.97;;;6.03;76.86
25855;BME280;13680;49.936;11.344;2023-04-02T12:35:33;96901.66;;;6.27;75.38
25855;BME280;13680;49.936;11.344;2023-04-02T12:38:00;96897.38;;;6.05;75.91
25855;BME280;13680;49.936;11.344;2023-04-02T12:40:26;96901.59;;;5.85;76.66
25855;BME280;13680;49.936;11.344;2023-04-02T12:42:52;96912.06;;;6.33;76.08
25855;BME280;13680;49.936;11.344;2023-04-02T12:45:29;96921.97;;;6.38;74.78
25855;BME280;13680;49.936;11.344;2023-04-02T12:47:59;96926.41;;;5.86;75.83
25855;BME280;13680;49.936;11.344;2023-04-02T12:50:27;96914.69;;;5.77;74.36
25855;BME280;13680;49.936;11.344;2023-04-02T12:52:53;96927.25;;;6.02;74.97
25855;BME280;13680;49.936;11.344;2023-04-02T12:55:22;96931.75;;;5.86;74.55
25855;BME280;13680;49.936;11.344;2023-04-02T12:57:54;96927.53;;;6.00;74.64
25855;BME280;13680;49.936;11.344;2023-04-02T13:07:56;96936.97;;;5.45;75.26
25855;BME280;13680;49.936;11.344;2023-04-02T13:10:24;96937.34;;;5.79;73.48
25855;BME280;13680;49.936;11.344;2023-04-02T13:12:55;96941.50;;;5.39;74.39
25855;BME280;13680;49.936;11.344;2023-04-02T13:15:32;96943.16;;;4.97;75.05
25855;BME280;13680;49.936;11.344;2023-04-02T13:20:34;96950.81;;;5.31;74.74
25855;BME280;13680;49.936;11.344;2023-04-02T13:25:45;96946.31;;;5.47;75.12
25855;BME280;13680;49.936;11.344;2023-04-02T13:28:11;96959.94;;;5.51;74.50
25855;BME280;13680;49.936;11.344;2023-04-02T13:30:36;96955.00;;;4.69;77.23
25855;BME280;13680;49.936;11.344;2023-04-02T13:33:01;96966.31;;;4.86;77.31
25855;BME280;13680;49.936;11.344;2023-04-02T13:35:27;96975.56;;;5.27;76.00
25855;BME280;13680;49.936;11.344;2023-04-02T13:37:52;96976.94;;;4.86;74.54
25855;BME280;13680;49.936;11.344;2023-04-02T13:40:17;96983.81;;;5.20;74.19
25855;BME280;13680;49.936;11.344;2023-04-02T13:42:44;96986.25;;;5.32;75.03
25855;BME280;13680;49.936;11.344;2023-04-02T13:45:27;96995.50;;;4.71;73.04
25855;BME280;13680;49.936;11.344;2023-04-02T13:47:54;96986.34;;;4.99;72.29
25855;BME280;13680;49.936;11.344;2023-04-02T13:50:22;96998.78;;;5.31;71.69
25855;BME280;13680;49.936;11.344;2023-04-02T13:52:50;96995.38;;;4.93;71.27
25855;BME280;13680;49.936;11.344;2023-04-02T13:55:16;96993.06;;;5.07;71.38
25855;BME280;13680;49.936;11.344;2023-04-02T13:57:42;96997.03;;;4.99;70.61
25855;BME280;13680;49.936;11.344;2023-04-02T14:00:08;96991.34;;;5.33;70.78
25855;BME280;13680;49.936;11.344;2023-04-02T14:02:34;97007.31;;;5.28;70.70
25855;BME280;13680;49.936;11.344;2023-04-02T14:11:07;97017.34;;;5.11;72.03
25855;BME280;13680;49.936;11.344;2023-04-02T14:21:41;97026.69;;;5.13;68.94
25855;BME280;13680;49.936;11.344;2023-04-02T14:24:31;97031.94;;;5.51;68.64
25855;BME280;13680;49.936;11.344;2023-04-02T14:32:31;97040.03;;;5.66;67.15
25855;BME280;13680;49.936;11.344;2023-04-02T14:35:20;97043.88;;;5.96;65.09
25855;BME280;13680;49.936;11.344;2023-04-02T14:40:58;97048.03;;;6.55;62.47
25855;BME280;13680;49.936;11.344;2023-04-02T14:43:38;97048.81;;;6.35;64.14
25855;BME280;13680;49.936;11.344;2023-04-02T14:46:07;97034.59;;;6.09;63.36
25855;BME280;13680;49.936;11.344;2023-04-02T14:51:40;97041.09;;;6.85;62.25
25855;BME280;13680;49.936;11.344;2023-04-02T14:56:46;97039.38;;;6.07;65.02
25855;BME280;13680;49.936;11.344;2023-04-02T14:59:35;97040.63;;;5.84;66.59
25855;BME280;13680;49.936;11.344;2023-04-02T15:02:11;97050.41;;;6.36;65.05
25855;BME280;13680;49.936;11.344;2023-04-02T15:04:45;97044.34;;;5.78;66.04
25855;BME280;13680;49.936;11.344;2023-04-02T15:07:17;97057.84;;;5.50;67.18
25855;BME280;13680;49.936;11.344;2023-04-02T15:09:48;97062.81;;;5.84;67.08
25855;BME280;13680;49.936;11.344;2023-04-02T15:12:30;97066.19;;;5.69;67.12
25855;BME280;13680;49.936;11.344;2023-04-02T15:15:32;97070.81;;;5.36;69.69
25855;BME280;13680;49.936;11.344;2023-04-02T15:18:00;97074.66;;;6.14;67.72
25855;BME280;13680;49.936;11.344;2023-04-02T15:26:25;97090.91;;;5.54;69.43
25855;BME280;13680;49.936;11.344;2023-04-02T15:30:08;97101.66;;;5.22;69.79
25855;BME280;13680;49.936;11.344;2023-04-02T15:35:03;97104.56;;;4.83;70.94
25855;BME280;13680;49.936;11.344;2023-04-02T15:37:56;97116.34;;;4.92;70.29
25855;BME280;13680;49.936;11.344;2023-04-02T15:43:09;97110.75;;;4.94;71.07
25855;BME280;13680;49.936;11.344;2023-04-02T15:46:08;97109.44;;;4.96;70.17
25855;BME280;13680;49.936;11.344;2023-04-02T15:51:31;97133.78;;;4.23;72.94
25855;BME280;13680;49.936;11.344;2023-04-02T15:56:39;97122.16;;;4.84;71.45
25855;BME280;13680;49.936;11.344;2023-04-02T15:59:29;97134.72;;;4.61;71.33
25855;BME280;13680;49.936;11.344;2023-04-02T16:02:37;97138.53;;;4.70;71.79
25855;BME280;13680;49.936;11.344;2023-04-02T16:10:42;97156.25;;;4.32;74.16
25855;BME280;13680;49.936;11.344;2023-04-02T16:15:57;97153.47;;;4.44;73.06
25855;BME280;13680;49.936;11.344;2023-04-02T16:21:19;97160.03;;;5.18;70.88
25855;BME280;13680;49.936;11.344;2023-04-02T16:23:45;97164.56;;;4.90;71.18
25855;BME280;13680;49.936;11.344;2023-04-02T16:29:27;97171.69;;;4.57;72.29
25855;BME280;13680;49.936;11.344;2023-04-02T16:32:08;97178.06;;;4.56;72.08
25855;BME280;13680;49.936;11.344;2023-04-02T16:37:41;97180.94;;;4.50;72.64
25855;BME280;13680;49.936;11.344;2023-04-02T16:40:52;97202.59;;;3.92;74.48